Cheyenne, WY (82008)

11:54 PM MST on February 28, 2015 (GMT -0700)
Cheyenne | Change Station
CLOSE
Current Station
Personal Weather Station
Location: Cheyenne, WY
Elevation: 6138 ft
Nearby Weather Stations

Elev 6138 ft 41.15 °N, 104.82 °W | Updated 11 seconds ago

Light Snow
Light Snow
15.8 °F
Feels Like 16 °F
N
0.0
Wind Variable Wind from South
Gusts 1.0 mph

Today
High -- | Low -- °F
--% Chance of Precip.
Yesterday
High -- | Low -- °F
Precip. -- in
6:35 AM 5:48 PM
Waxing Gibbous, 83% visible
Pressure 29.93 in
Visibility 3.0 miles
Clouds Overcast 2000 ft
Windchill 16 °F
Dew Point 12 °F
Humidity 83%
Rainfall 0.00 in
Snow Depth Not available.
UV 0 out of 12
Pollen .50 out of 12
Air Quality Not available.
Flu Activity Not available.
SPECI KFEW 010611Z AUTO 21004KT 3SM -SN OVC020 M08/M10 A2993 RMK AO2 $

More Conditions Fewer Conditions

Pressure 29.93 in
Visibility 3.0 miles
Clouds Overcast 2000 ft
Windchill 16 °F
Dew Point 12 °F
Humidity 83%
Rainfall 0.00 in
Snow Depth Not available.
UV 0 out of 12
Pollen .50 out of 12
Air Quality Not available.
Flu Activity Not available.
SPECI KFEW 010611Z AUTO 21004KT 3SM -SN OVC020 M08/M10 A2993 RMK AO2 $

More Conditions Fewer Conditions

10-Day Weather Forecast

Almanac

Astronomy

Feb. 28, 2015 Rise Set
Actual Time
Civil Twilight
Nautical Twilight
Astronomical Twilight
Moon
Length of Visible Light
Length of Day
Tomorrow will be .
, % of the Moon is Illuminated

Today's Extremes

State Highs State Lows

Community

WunderPhotos

Upload Photos

1,801,345 photos uploaded!

WunderBlogs® & News

Nearby

Air Quality

  Air Quality AQ Index Pollutant
Not available.

Snow Depth

Station Depth Elevation

Earthquake Activity

City Distance Mag. Time & Date
Minimum magnitude displayed is 2.5.

Coastal Water Temperatures

Place Temperature

Nearby Weather Stations